createdAt,value
2018-07-15T00:00:26.007Z,98101.23
2018-07-15T00:02:54.519Z,98104.48
2018-07-15T00:05:22.977Z,98106.38
2018-07-15T00:07:51.789Z,98107.18
2018-07-15T00:10:20.302Z,98101.22
2018-07-15T00:12:48.809Z,98096.91
2018-07-15T00:15:17.273Z,98093.94
2018-07-15T00:17:45.751Z,98096.95
2018-07-15T00:20:14.307Z,98090.44
2018-07-15T00:22:43.045Z,98094.77
2018-07-15T00:25:11.520Z,98085.31
2018-07-15T00:27:40.014Z,98093.71
2018-07-15T00:30:08.538Z,98092.11
2018-07-15T00:32:37.054Z,98092.62
2018-07-15T00:35:05.551Z,98088.30
2018-07-15T00:37:34.060Z,98089.64
2018-07-15T00:40:02.556Z,98094.51
2018-07-15T00:42:31.085Z,98092.37
2018-07-15T00:44:59.550Z,98090.75
2018-07-15T00:47:28.066Z,98085.37
2018-07-15T00:49:56.517Z,98087.53
2018-07-15T00:52:25.012Z,98079.70
2018-07-15T00:54:53.490Z,98079.45
2018-07-15T00:57:21.994Z,98085.35
2018-07-15T00:59:50.467Z,98078.61
2018-07-15T01:02:18.974Z,98084.55
2018-07-15T01:04:47.445Z,98081.59
2018-07-15T01:07:15.934Z,98082.39
2018-07-15T01:09:44.382Z,98077.00
2018-07-15T01:12:12.861Z,98074.02
2018-07-15T01:14:41.340Z,98072.67
2018-07-15T01:17:09.866Z,98074.56
2018-07-15T01:19:38.327Z,98075.66
2018-07-15T01:22:06.829Z,98072.92
2018-07-15T01:24:35.306Z,98076.19
2018-07-15T01:27:03.817Z,98082.86
2018-07-15T01:29:32.277Z,98081.47
2018-07-15T01:32:00.741Z,98085.72
2018-07-15T01:34:29.436Z,98081.40
2018-07-15T01:36:57.897Z,98077.95
2018-07-15T01:39:26.447Z,98083.91
2018-07-15T01:41:54.970Z,98073.92
2018-07-15T01:44:23.457Z,98076.59
2018-07-15T01:46:51.975Z,98075.77
2018-07-15T01:49:20.465Z,98073.36
2018-07-15T01:51:48.921Z,98070.94
2018-07-15T01:54:19.590Z,98070.38
2018-07-15T01:56:48.057Z,98070.11
2018-07-15T01:59:16.551Z,98070.06
2018-07-15T02:01:45.032Z,98068.10
2018-07-15T02:04:13.610Z,98068.05
2018-07-15T02:06:42.138Z,98060.00
2018-07-15T02:09:10.784Z,98058.70
2018-07-15T02:11:39.337Z,98053.80
2018-07-15T02:14:07.913Z,98051.10
2018-07-15T02:16:36.479Z,98049.82
2018-07-15T02:19:05.187Z,98048.70
2018-07-15T02:21:33.743Z,98056.50
2018-07-15T02:24:02.317Z,98053.33
2018-07-15T02:26:30.786Z,98049.84
2018-07-15T02:28:59.269Z,98055.71
2018-07-15T02:31:27.783Z,98056.27
2018-07-15T02:33:56.324Z,98051.13
2018-07-15T02:36:24.847Z,98046.00
2018-07-15T02:38:53.448Z,98043.84
2018-07-15T02:41:21.969Z,98044.92
2018-07-15T02:43:50.643Z,98050.55
2018-07-15T02:46:19.181Z,98048.91
2018-07-15T02:48:47.734Z,98059.80
2018-07-15T02:51:16.210Z,98056.01
2018-07-15T02:53:44.724Z,98058.61
2018-07-15T02:56:13.181Z,98057.83
2018-07-15T02:58:41.690Z,98057.12
2018-07-15T03:01:10.161Z,98060.05
2018-07-15T03:03:38.658Z,98056.03
2018-07-15T03:06:07.290Z,98058.67
2018-07-15T03:08:35.832Z,98053.32
2018-07-15T03:11:04.334Z,98053.05
2018-07-15T03:13:32.853Z,98052.73
2018-07-15T03:16:01.326Z,98047.88
2018-07-15T03:18:29.798Z,98052.52
2018-07-15T03:20:58.318Z,98064.59
2018-07-15T03:23:26.781Z,98064.55
2018-07-15T03:25:55.269Z,98068.62
2018-07-15T03:28:23.753Z,98068.69
2018-07-15T03:30:52.269Z,98063.62
2018-07-15T03:33:21.095Z,98061.83
2018-07-15T03:35:49.626Z,98073.11
2018-07-15T03:38:18.098Z,98074.82
2018-07-15T03:40:46.592Z,98074.63
2018-07-15T03:43:15.061Z,98077.55
2018-07-15T03:45:43.562Z,98073.80
2018-07-15T03:48:12.035Z,98079.77
2018-07-15T03:50:40.558Z,98085.97
2018-07-15T03:53:09.080Z,98082.36
2018-07-15T03:55:37.786Z,98079.11
2018-07-15T03:58:06.454Z,98074.43
2018-07-15T04:00:35.011Z,98071.30
2018-07-15T04:03:03.499Z,98072.99
2018-07-15T04:05:32.018Z,98070.97
2018-07-15T04:08:00.644Z,98072.40
2018-07-15T04:10:29.726Z,98075.92
2018-07-15T04:12:58.373Z,98070.80
2018-07-15T04:15:26.901Z,98064.41
2018-07-15T04:18:03.349Z,98062.84
2018-07-15T04:20:32.426Z,98058.55
2018-07-15T04:23:01.654Z,98061.81
2018-07-15T04:25:30.373Z,98057.73
2018-07-15T04:27:58.947Z,98054.80
2018-07-15T04:30:27.446Z,98051.56
2018-07-15T04:32:55.998Z,98048.63
2018-07-15T04:35:24.497Z,98058.11
2018-07-15T04:37:53.016Z,98058.41
2018-07-15T04:40:21.791Z,98058.94
2018-07-15T04:42:50.754Z,98063.50
2018-07-15T04:45:20.213Z,98060.55
2018-07-15T04:47:49.516Z,98059.19
2018-07-15T04:50:18.054Z,98057.30
2018-07-15T04:52:46.751Z,98059.21
2018-07-15T04:55:15.271Z,98057.59
2018-07-15T04:57:43.775Z,98056.23
2018-07-15T05:00:12.314Z,98060.56
2018-07-15T05:02:40.798Z,98058.39
2018-07-15T05:05:09.350Z,98061.89
2018-07-15T05:07:37.830Z,98055.69
2018-07-15T05:10:06.515Z,98062.98
2018-07-15T05:12:35.011Z,98061.62
2018-07-15T05:15:03.562Z,98063.78
2018-07-15T05:17:32.084Z,98065.64
2018-07-15T05:20:00.570Z,98065.07
2018-07-15T05:22:29.075Z,98066.17
2018-07-15T05:24:57.567Z,98060.42
2018-07-15T05:27:26.081Z,98057.34
2018-07-15T05:29:54.581Z,98060.96
2018-07-15T05:32:23.082Z,98058.44
2018-07-15T05:34:51.560Z,98066.25
2018-07-15T05:37:20.097Z,98065.66
2018-07-15T05:39:48.562Z,98060.98
2018-07-15T05:42:17.085Z,98064.37
2018-07-15T05:44:45.561Z,98066.84
2018-07-15T05:47:14.078Z,98068.75
2018-07-15T05:49:42.565Z,98065.50
2018-07-15T05:52:11.093Z,98074.09
2018-07-15T05:54:39.585Z,98078.51
2018-07-15T05:57:08.154Z,98078.04
2018-07-15T05:59:36.658Z,98084.53
2018-07-15T06:02:05.239Z,98089.34
2018-07-15T06:04:33.722Z,98090.92
2018-07-15T06:07:02.285Z,98092.74
2018-07-15T06:09:30.761Z,98091.86
2018-07-15T06:11:59.269Z,98100.07
2018-07-15T06:14:27.745Z,98097.22
2018-07-15T06:16:56.254Z,98094.17
2018-07-15T06:19:24.739Z,98098.47
2018-07-15T06:21:53.327Z,98095.75
2018-07-15T06:24:21.822Z,98097.58
2018-07-15T06:26:50.347Z,98101.50
2018-07-15T06:29:18.838Z,98105.16
2018-07-15T06:31:47.501Z,98106.00
2018-07-15T06:34:16.152Z,98105.09
2018-07-15T06:36:44.667Z,98100.09
2018-07-15T06:39:13.266Z,98099.12
2018-07-15T06:41:41.826Z,98106.69
2018-07-15T06:44:10.308Z,98102.52
2018-07-15T06:46:38.820Z,98108.98
2018-07-15T06:49:07.375Z,98095.19
2018-07-15T06:51:35.854Z,98101.34
2018-07-15T06:54:04.460Z,98102.58
2018-07-15T06:56:32.912Z,98103.78
2018-07-15T06:59:01.458Z,98106.83
2018-07-15T07:01:30.333Z,98100.36
2018-07-15T07:03:58.810Z,98104.73
2018-07-15T07:06:27.429Z,98104.77
2018-07-15T07:08:56.095Z,98097.50
2018-07-15T07:11:24.683Z,98098.27
2018-07-15T07:13:53.354Z,98095.97
2018-07-15T07:16:21.935Z,98094.38
2018-07-15T07:18:50.514Z,98093.45
2018-07-15T07:21:19.130Z,98095.08
2018-07-15T07:23:47.653Z,98097.05
2018-07-15T07:26:16.379Z,98092.25
2018-07-15T07:28:44.950Z,98093.61
2018-07-15T07:31:13.443Z,98096.59
2018-07-15T07:33:42.131Z,98098.64
2018-07-15T07:36:10.734Z,98092.85
2018-07-15T07:38:39.395Z,98093.04
2018-07-15T07:41:07.988Z,98094.70
2018-07-15T07:43:44.229Z,98090.55
2018-07-15T07:46:12.710Z,98096.47
2018-07-15T07:48:41.231Z,98094.97
2018-07-15T07:51:09.843Z,98096.16
2018-07-15T07:53:38.624Z,98096.47
2018-07-15T07:56:14.174Z,98095.28
2018-07-15T07:58:42.845Z,98092.83
2018-07-15T08:01:11.377Z,98096.34
2018-07-15T08:03:39.953Z,98098.47
2018-07-15T08:06:08.491Z,98093.42
2018-07-15T08:08:37.134Z,98096.22
2018-07-15T08:11:05.658Z,98098.93
2018-07-15T08:13:34.811Z,98098.98
2018-07-15T08:16:03.315Z,98094.73
2018-07-15T08:18:31.831Z,98096.77
2018-07-15T08:21:00.466Z,98108.16
2018-07-15T08:23:29.781Z,98099.81
2018-07-15T08:25:58.254Z,98099.25
2018-07-15T08:28:26.894Z,98095.22
2018-07-15T08:31:09.570Z,98100.55
2018-07-15T08:33:39.371Z,98099.73
2018-07-15T08:36:08.285Z,98088.52
2018-07-15T08:38:36.806Z,98095.32
2018-07-15T08:41:05.342Z,98095.80
2018-07-15T08:43:34.752Z,98095.45
2018-07-15T08:46:03.410Z,98095.64
2018-07-15T08:48:32.036Z,98100.36
2018-07-15T08:51:00.560Z,98094.72
2018-07-15T08:53:29.311Z,98085.05
2018-07-15T08:55:57.997Z,98095.08
2018-07-15T08:58:26.832Z,98094.41
2018-07-15T09:00:56.682Z,98088.69
2018-07-15T09:03:25.468Z,98086.45
2018-07-15T09:05:54.105Z,98089.08
2018-07-15T09:08:22.828Z,98087.49
2018-07-15T09:10:52.499Z,98087.27
2018-07-15T09:13:21.269Z,98079.83
2018-07-15T09:15:49.869Z,98086.91
2018-07-15T09:18:18.802Z,98079.77
2018-07-15T09:20:47.550Z,98079.34
2018-07-15T09:23:16.038Z,98077.16
2018-07-15T09:25:44.764Z,98077.95
2018-07-15T09:28:13.376Z,98073.45
2018-07-15T09:30:41.947Z,98063.77
2018-07-15T09:33:15.819Z,98062.81
2018-07-15T09:35:44.402Z,98060.25
2018-07-15T09:38:12.950Z,98048.28
2018-07-15T09:40:42.841Z,98054.81
2018-07-15T09:43:11.344Z,98044.38
2018-07-15T09:45:39.849Z,98045.11
2018-07-15T09:48:08.362Z,98041.94
2018-07-15T09:50:36.977Z,98039.90
2018-07-15T09:53:05.486Z,98033.59
2018-07-15T09:55:34.076Z,98030.66
2018-07-15T09:58:02.541Z,98024.14
2018-07-15T10:00:36.387Z,98022.50
2018-07-15T10:03:04.938Z,98018.12
2018-07-15T10:05:35.031Z,98016.71
2018-07-15T10:08:03.560Z,98012.95
2018-07-15T10:10:32.113Z,98010.55
2018-07-15T10:13:00.945Z,98013.53
2018-07-15T10:15:29.480Z,97999.94
2018-07-15T10:17:58.012Z,97989.50
2018-07-15T10:20:26.557Z,97990.24
2018-07-15T10:22:55.964Z,97982.09
2018-07-15T10:25:24.505Z,97970.15
2018-07-15T10:27:52.977Z,97967.53
2018-07-15T10:30:21.931Z,97960.55
2018-07-15T10:32:50.430Z,97960.61
2018-07-15T10:35:18.945Z,97963.68
2018-07-15T10:37:47.527Z,97958.50
2018-07-15T10:40:17.007Z,97957.27
2018-07-15T10:42:45.516Z,97950.58
2018-07-15T10:45:14.139Z,97945.69
2018-07-15T10:47:43.137Z,97937.08
2018-07-15T10:50:13.391Z,97929.98
2018-07-15T10:52:41.938Z,97930.05
2018-07-15T10:55:10.435Z,97924.83
2018-07-15T10:57:38.984Z,97924.89
2018-07-15T11:00:07.553Z,97918.80
2018-07-15T11:02:36.570Z,97913.58
2018-07-15T11:05:05.705Z,97907.86
2018-07-15T11:07:34.241Z,97906.66
2018-07-15T11:10:02.778Z,97918.53
2018-07-15T11:12:31.323Z,97914.32
2018-07-15T11:15:00.047Z,97910.80
2018-07-15T11:17:28.616Z,97905.81
2018-07-15T11:19:57.138Z,97907.84
2018-07-15T11:22:25.735Z,97907.47
2018-07-15T11:24:54.190Z,97906.20
2018-07-15T11:27:22.728Z,97890.66
2018-07-15T11:29:51.271Z,97891.80
2018-07-15T11:32:19.830Z,97893.83
2018-07-15T11:34:48.349Z,97887.23
2018-07-15T11:37:16.885Z,97889.33
2018-07-15T11:39:45.573Z,97883.92
2018-07-15T11:42:14.931Z,97875.33
2018-07-15T11:44:43.697Z,97879.73
2018-07-15T11:47:12.676Z,97873.58
2018-07-15T11:49:41.267Z,97866.05
2018-07-15T11:52:09.973Z,97871.25
2018-07-15T11:54:41.782Z,97869.34
2018-07-15T11:57:10.310Z,97870.40
2018-07-15T11:59:38.794Z,97869.02
2018-07-15T12:02:07.353Z,97867.59
2018-07-15T12:04:35.841Z,97870.52
2018-07-15T12:07:04.386Z,97868.01
2018-07-15T12:09:32.881Z,97873.26
2018-07-15T12:12:01.417Z,97864.03
2018-07-15T12:14:29.882Z,97859.95
2018-07-15T12:16:58.371Z,97854.20
2018-07-15T12:19:26.957Z,97859.58
2018-07-15T12:21:55.588Z,97860.36
2018-07-15T12:24:24.146Z,97851.78
2018-07-15T12:26:52.642Z,97860.52
2018-07-15T12:29:21.154Z,97843.86
2018-07-15T12:31:49.662Z,97858.19
2018-07-15T12:34:18.181Z,97849.95
2018-07-15T12:36:46.670Z,97831.13
2018-07-15T12:39:15.368Z,97842.20
2018-07-15T12:41:43.885Z,97840.25
2018-07-15T12:44:12.441Z,97838.79
2018-07-15T12:46:40.994Z,97838.69
2018-07-15T12:49:09.608Z,97828.52
2018-07-15T12:51:38.163Z,97833.53
2018-07-15T12:54:07.148Z,97839.68
2018-07-15T12:56:35.751Z,97839.52
2018-07-15T12:59:04.339Z,97849.30
2018-07-15T13:01:32.851Z,97858.84
2018-07-15T13:04:01.746Z,97858.10
2018-07-15T13:06:30.421Z,97868.45
2018-07-15T13:08:58.963Z,97882.48
2018-07-15T13:11:27.611Z,97895.34
2018-07-15T13:13:56.187Z,97919.88
2018-07-15T13:16:25.465Z,97932.59
2018-07-15T13:18:53.931Z,97934.69
2018-07-15T13:21:22.458Z,97934.55
2018-07-15T13:23:51.143Z,97940.27
2018-07-15T13:26:19.753Z,97933.70
2018-07-15T13:28:48.379Z,97937.98
2018-07-15T13:31:16.902Z,97933.42
2018-07-15T13:33:45.476Z,97935.05
2018-07-15T13:36:14.239Z,97934.95
2018-07-15T13:38:42.807Z,97933.73
2018-07-15T13:41:11.338Z,97923.83
2018-07-15T13:43:39.834Z,97911.48
2018-07-15T13:46:08.358Z,97914.72
2018-07-15T13:48:36.889Z,97908.95
2018-07-15T13:51:05.538Z,97907.35
2018-07-15T13:53:33.982Z,97902.16
2018-07-15T13:56:02.536Z,97902.05
2018-07-15T13:58:31.002Z,97903.58
2018-07-15T14:00:59.602Z,97899.52
2018-07-15T14:03:28.087Z,97898.91
2018-07-15T14:05:56.628Z,97906.16
2018-07-15T14:08:25.114Z,97904.12
2018-07-15T14:10:53.614Z,97909.84
2018-07-15T14:13:22.097Z,97920.25
2018-07-15T14:15:50.605Z,97919.73
2018-07-15T14:18:19.093Z,97913.81
2018-07-15T14:20:47.670Z,97907.96
2018-07-15T14:23:16.878Z,97902.53
2018-07-15T14:25:45.372Z,97908.13
2018-07-15T14:28:13.917Z,97910.98
2018-07-15T14:30:42.414Z,97905.53
2018-07-15T14:33:10.878Z,97909.92
2018-07-15T14:35:39.374Z,97912.07
2018-07-15T14:38:07.894Z,97909.99
2018-07-15T14:40:36.394Z,97911.68
2018-07-15T14:43:04.917Z,97914.55
2018-07-15T14:45:34.370Z,97920.91
2018-07-15T14:48:03.706Z,97927.14
2018-07-15T14:50:32.222Z,97932.16
2018-07-15T14:53:00.697Z,97939.77
2018-07-15T14:55:29.162Z,97944.63
2018-07-15T14:57:57.645Z,97945.90
2018-07-15T15:00:26.178Z,97953.97
2018-07-15T15:02:54.650Z,97956.80
2018-07-15T15:05:23.091Z,97959.26
2018-07-15T15:07:51.945Z,97968.18
2018-07-15T15:10:20.458Z,97973.39
2018-07-15T15:12:48.951Z,97974.17
2018-07-15T15:15:17.401Z,97979.18
2018-07-15T15:17:45.893Z,97979.33
2018-07-15T15:20:14.386Z,97981.72
2018-07-15T15:22:42.991Z,97977.90
2018-07-15T15:25:11.502Z,97981.25
2018-07-15T15:27:40.037Z,97973.61
2018-07-15T15:30:09.152Z,97964.88
2018-07-15T15:32:37.690Z,97949.75
2018-07-15T15:35:06.287Z,97952.05
2018-07-15T15:37:35.617Z,97945.45
2018-07-15T15:40:04.439Z,97945.20
2018-07-15T15:42:33.012Z,97944.27
2018-07-15T15:45:01.452Z,97943.61
2018-07-15T15:47:29.947Z,97933.12
2018-07-15T15:49:58.441Z,97932.94
2018-07-15T15:52:26.933Z,97928.77
2018-07-15T15:54:55.394Z,97918.53
2018-07-15T15:57:23.901Z,97921.21
2018-07-15T15:59:52.375Z,97927.26
2018-07-15T16:02:20.902Z,97923.30
2018-07-15T16:04:49.349Z,97928.27
2018-07-15T16:07:17.814Z,97927.94
2018-07-15T16:09:46.284Z,97935.63
2018-07-15T16:12:14.953Z,97934.97
2018-07-15T16:14:43.984Z,97929.47
2018-07-15T16:17:12.496Z,97929.08
2018-07-15T16:19:41.022Z,97918.22
2018-07-15T16:22:09.554Z,97909.20
2018-07-15T16:24:38.057Z,97903.56
2018-07-15T16:27:06.679Z,97899.86
2018-07-15T16:29:35.142Z,97905.59
2018-07-15T16:32:04.372Z,97915.59
2018-07-15T16:34:32.902Z,97919.41
2018-07-15T16:37:01.442Z,97912.58
2018-07-15T16:39:29.930Z,97914.86
2018-07-15T16:41:58.447Z,97910.66
2018-07-15T16:44:26.950Z,97909.44
2018-07-15T16:46:55.510Z,97905.11
2018-07-15T16:49:23.978Z,97902.73
2018-07-15T16:51:52.494Z,97900.70
2018-07-15T16:54:20.974Z,97901.90
2018-07-15T16:56:49.480Z,97904.52
2018-07-15T16:59:18.081Z,97901.49
2018-07-15T17:01:46.913Z,97898.92
2018-07-15T17:04:15.437Z,97897.92
2018-07-15T17:06:43.929Z,97899.70
2018-07-15T17:09:12.453Z,97896.87
2018-07-15T17:11:41.068Z,97896.80
2018-07-15T17:14:09.599Z,97903.34
2018-07-15T17:16:41.533Z,97908.60
2018-07-15T17:19:10.039Z,97903.67
2018-07-15T17:21:43.709Z,97902.86
2018-07-15T17:24:12.966Z,97893.16
2018-07-15T17:26:42.413Z,97902.61
2018-07-15T17:29:11.200Z,97903.18
2018-07-15T17:31:39.727Z,97893.42
2018-07-15T17:34:08.298Z,97888.42
2018-07-15T17:36:37.005Z,97883.84
2018-07-15T17:39:06.599Z,97882.31
2018-07-15T17:41:35.339Z,97871.78
2018-07-15T17:44:04.782Z,97865.44
2018-07-15T17:46:33.276Z,97865.59
2018-07-15T17:49:01.785Z,97866.95
2018-07-15T17:51:31.437Z,97865.30
2018-07-15T17:53:59.989Z,97859.96
2018-07-15T17:56:28.497Z,97860.58
2018-07-15T17:58:57.073Z,97863.06
2018-07-15T18:01:25.591Z,97863.77
2018-07-15T18:03:54.296Z,97864.66
2018-07-15T18:06:23.469Z,97865.03
2018-07-15T18:08:51.993Z,97863.36
2018-07-15T18:11:20.530Z,97870.14
2018-07-15T18:13:49.111Z,97875.00
2018-07-15T18:16:18.030Z,97885.00
2018-07-15T18:18:47.486Z,97887.44
2018-07-15T18:21:16.122Z,97884.97
2018-07-15T18:23:45.780Z,97882.39
2018-07-15T18:26:14.799Z,97888.97
2018-07-15T18:28:43.886Z,97889.17
2018-07-15T18:31:12.623Z,97901.91
2018-07-15T18:33:41.281Z,97909.59
2018-07-15T18:36:10.655Z,97910.50
2018-07-15T18:38:40.979Z,97912.58
2018-07-15T18:41:09.527Z,97923.05
2018-07-15T18:43:38.075Z,97928.28
2018-07-15T18:46:06.666Z,97922.25
2018-07-15T18:48:35.367Z,97926.70
2018-07-15T18:51:04.141Z,97931.28
2018-07-15T18:53:33.597Z,97936.17
2018-07-15T18:56:02.064Z,97929.12
2018-07-15T18:58:31.828Z,97939.98
2018-07-15T19:01:00.346Z,97946.25
2018-07-15T19:03:28.886Z,97945.42
2018-07-15T19:05:58.007Z,97941.77
2018-07-15T19:08:26.559Z,97939.48
2018-07-15T19:10:55.136Z,97937.40
2018-07-15T19:13:23.646Z,97937.42
2018-07-15T19:15:52.139Z,97946.88
2018-07-15T19:18:20.863Z,97955.91
2018-07-15T19:20:49.381Z,97951.84
2018-07-15T19:23:17.906Z,97950.41
2018-07-15T19:25:46.566Z,97961.47
2018-07-15T19:28:15.591Z,97970.34
2018-07-15T19:30:44.254Z,97975.02
2018-07-15T19:33:12.983Z,97976.23
2018-07-15T19:35:43.437Z,97981.67
2018-07-15T19:38:11.953Z,97982.73
2018-07-15T19:40:40.490Z,97977.84
2018-07-15T19:43:09.000Z,97979.97
2018-07-15T19:45:37.674Z,97977.02
2018-07-15T19:48:06.214Z,97981.09
2018-07-15T19:50:34.822Z,97978.32
2018-07-15T19:53:03.469Z,97981.31
2018-07-15T19:55:32.183Z,97980.09
2018-07-15T19:58:00.739Z,97978.80
2018-07-15T20:00:29.320Z,97971.83
2018-07-15T20:02:58.868Z,97973.48
2018-07-15T20:05:27.438Z,97970.45
2018-07-15T20:07:56.006Z,97978.13
2018-07-15T20:10:24.825Z,97975.22
2018-07-15T20:12:53.434Z,97971.21
2018-07-15T20:15:22.012Z,97960.66
2018-07-15T20:17:50.600Z,97959.58
2018-07-15T20:20:19.150Z,97959.87
2018-07-15T20:22:47.671Z,97959.87
2018-07-15T20:25:16.371Z,97964.16
2018-07-15T20:27:44.947Z,97969.03
2018-07-15T20:30:13.581Z,97975.81
2018-07-15T20:32:42.177Z,97967.00
2018-07-15T20:35:10.882Z,97970.24
2018-07-15T20:37:39.455Z,97981.94
2018-07-15T20:40:08.168Z,97987.22
2018-07-15T20:42:36.682Z,97986.20
2018-07-15T20:45:05.298Z,97981.64
2018-07-15T20:47:33.875Z,97973.77
2018-07-15T20:50:02.474Z,97982.13
2018-07-15T20:52:31.043Z,97982.88
2018-07-15T20:54:59.757Z,97991.02
2018-07-15T20:57:28.306Z,97988.03
2018-07-15T20:59:56.967Z,97986.45
2018-07-15T21:02:25.672Z,97989.41
2018-07-15T21:04:54.566Z,97985.09
2018-07-15T21:07:23.162Z,97988.90
2018-07-15T21:12:50.022Z,97988.92
2018-07-15T21:15:18.992Z,97983.78
2018-07-15T21:17:49.348Z,97988.14
2018-07-15T21:20:18.176Z,97990.83
2018-07-15T21:22:47.829Z,97984.39
2018-07-15T21:25:18.355Z,97987.34
2018-07-15T21:27:47.563Z,97984.91
2018-07-15T21:30:16.136Z,97986.81
2018-07-15T21:32:44.730Z,97983.05
2018-07-15T21:35:13.256Z,97979.77
2018-07-15T21:37:41.861Z,97974.65
2018-07-15T21:40:13.235Z,97966.00
2018-07-15T21:42:45.165Z,97974.37
2018-07-15T21:45:13.696Z,97978.41
2018-07-15T21:47:42.290Z,97976.30
2018-07-15T21:50:11.099Z,97975.50
2018-07-15T21:52:39.555Z,97974.42
2018-07-15T21:55:08.105Z,97979.86
2018-07-15T21:57:37.298Z,97988.77
2018-07-15T22:00:07.341Z,97988.50
2018-07-15T22:02:37.089Z,97984.74
2018-07-15T22:05:06.647Z,97989.87
2018-07-15T22:07:47.565Z,97990.70
2018-07-15T22:10:51.146Z,97989.08
2018-07-15T22:13:20.505Z,97987.48
2018-07-15T22:15:49.055Z,97977.75
2018-07-15T22:18:17.605Z,97978.56
2018-07-15T22:20:46.173Z,97985.86
2018-07-15T22:23:14.793Z,97980.73
2018-07-15T22:25:48.152Z,97972.94
2018-07-15T22:28:19.113Z,97977.48
2018-07-15T22:30:47.734Z,97979.61
2018-07-15T22:33:16.273Z,97983.23
2018-07-15T22:35:44.922Z,97980.53
2018-07-15T22:38:13.430Z,97980.43
2018-07-15T22:40:42.902Z,97983.41
2018-07-15T22:43:14.445Z,97968.70
2018-07-15T22:45:43.030Z,97975.73
2018-07-15T22:48:11.677Z,97962.30
2018-07-15T22:50:42.934Z,97973.62
2018-07-15T22:53:13.626Z,97979.55
2018-07-15T22:55:44.267Z,97972.28
2018-07-15T22:58:12.845Z,97975.77
2018-07-15T23:00:42.511Z,97976.30
2018-07-15T23:03:13.738Z,97983.30
2018-07-15T23:05:59.889Z,97979.56
2018-07-15T23:08:30.860Z,97990.32
2018-07-15T23:10:59.438Z,98000.84
2018-07-15T23:13:28.644Z,98003.77
2018-07-15T23:15:57.190Z,97994.88
2018-07-15T23:18:25.755Z,97995.92
2018-07-15T23:20:54.282Z,98001.23
2018-07-15T23:23:23.551Z,97997.11
2018-07-15T23:25:52.129Z,97997.54
2018-07-15T23:28:21.027Z,97998.12
2018-07-15T23:30:49.578Z,97990.08
2018-07-15T23:33:19.374Z,97988.17
2018-07-15T23:35:47.881Z,97995.78
2018-07-15T23:38:16.457Z,97985.55
2018-07-15T23:40:44.978Z,97992.28
2018-07-15T23:43:13.509Z,97983.91
